sensor_id;sensor_type;location;lat;lon;timestamp;pressure;altitude;pressure_sealevel;temperature;humidity
27805;BME280;15183;51.350;11.102;2022-10-14T00:01:19;100097.84;;;17.45;54.74
27805;BME280;15183;51.350;11.102;2022-10-14T00:03:46;100105.88;;;17.45;54.94
27805;BME280;15183;51.350;11.102;2022-10-14T00:06:36;100084.69;;;17.28;54.80
27805;BME280;15183;51.350;11.102;2022-10-14T00:09:06;100101.00;;;17.37;55.30
27805;BME280;15183;51.350;11.102;2022-10-14T00:11:35;100090.28;;;17.27;54.93
27805;BME280;15183;51.350;11.102;2022-10-14T00:14:11;100103.66;;;17.27;54.81
27805;BME280;15183;51.350;11.102;2022-10-14T00:16:40;100104.72;;;17.20;55.40
27805;BME280;15183;51.350;11.102;2022-10-14T00:19:07;100098.00;;;17.13;55.15
27805;BME280;15183;51.350;11.102;2022-10-14T00:21:35;100101.50;;;17.13;55.27
27805;BME280;15183;51.350;11.102;2022-10-14T00:24:02;100094.22;;;17.03;54.79
27805;BME280;15183;51.350;11.102;2022-10-14T00:26:33;100106.31;;;17.11;55.16
27805;BME280;15183;51.350;11.102;2022-10-14T00:29:04;100112.19;;;17.08;55.08
27805;BME280;15183;51.350;11.102;2022-10-14T00:31:32;100115.41;;;17.10;55.35
27805;BME280;15183;51.350;11.102;2022-10-14T00:33:59;100108.16;;;17.05;54.95
27805;BME280;15183;51.350;11.102;2022-10-14T00:36:25;100103.63;;;17.11;55.00
27805;BME280;15183;51.350;11.102;2022-10-14T00:38:53;100114.88;;;17.13;55.08
27805;BME280;15183;51.350;11.102;2022-10-14T00:41:27;100110.63;;;17.17;55.13
27805;BME280;15183;51.350;11.102;2022-10-14T00:46:45;100113.28;;;17.12;54.95
27805;BME280;15183;51.350;11.102;2022-10-14T00:49:36;100119.97;;;17.15;55.21
27805;BME280;15183;51.350;11.102;2022-10-14T00:52:14;100114.91;;;17.18;54.89
27805;BME280;15183;51.350;11.102;2022-10-14T00:54:59;100087.03;;;17.09;54.76
27805;BME280;15183;51.350;11.102;2022-10-14T00:57:27;100102.31;;;17.19;54.83
27805;BME280;15183;51.350;11.102;2022-10-14T01:00:09;100108.78;;;17.28;55.14
27805;BME280;15183;51.350;11.102;2022-10-14T01:02:36;100109.84;;;17.32;55.04
27805;BME280;15183;51.350;11.102;2022-10-14T01:05:04;100107.44;;;17.36;54.77
27805;BME280;15183;51.350;11.102;2022-10-14T01:07:45;100103.97;;;17.30;54.64
27805;BME280;15183;51.350;11.102;2022-10-14T01:10:43;100111.72;;;17.37;54.71
27805;BME280;15183;51.350;11.102;2022-10-14T01:13:38;100110.41;;;17.40;54.92
27805;BME280;15183;51.350;11.102;2022-10-14T01:16:38;100106.13;;;17.39;55.21
27805;BME280;15183;51.350;11.102;2022-10-14T01:22:24;100099.13;;;17.27;55.19
27805;BME280;15183;51.350;11.102;2022-10-14T01:27:53;100102.31;;;17.19;54.82
27805;BME280;15183;51.350;11.102;2022-10-14T01:30:24;100089.19;;;17.12;54.95
27805;BME280;15183;51.350;11.102;2022-10-14T01:33:19;100102.34;;;17.24;55.21
27805;BME280;15183;51.350;11.102;2022-10-14T01:36:09;100091.88;;;17.23;54.95
27805;BME280;15183;51.350;11.102;2022-10-14T01:38:45;100096.69;;;17.20;55.56
27805;BME280;15183;51.350;11.102;2022-10-14T01:41:31;100092.66;;;17.23;55.11
27805;BME280;15183;51.350;11.102;2022-10-14T01:44:04;100092.66;;;17.23;55.32
27805;BME280;15183;51.350;11.102;2022-10-14T01:46:34;100087.06;;;17.25;55.17
27805;BME280;15183;51.350;11.102;2022-10-14T01:49:09;100091.88;;;17.23;55.74
27805;BME280;15183;51.350;11.102;2022-10-14T01:52:01;100093.50;;;17.24;55.01
27805;BME280;15183;51.350;11.102;2022-10-14T01:54:36;100075.25;;;17.15;55.28
27805;BME280;15183;51.350;11.102;2022-10-14T01:57:10;100074.44;;;17.20;55.20
27805;BME280;15183;51.350;11.102;2022-10-14T01:59:39;100065.88;;;17.13;55.28
27805;BME280;15183;51.350;11.102;2022-10-14T02:02:06;100065.88;;;17.13;55.43
27805;BME280;15183;51.350;11.102;2022-10-14T02:04:33;100077.94;;;17.15;55.08
27805;BME280;15183;51.350;11.102;2022-10-14T02:07:17;100070.97;;;17.09;55.22
27805;BME280;15183;51.350;11.102;2022-10-14T02:09:55;100081.69;;;17.09;55.12
27805;BME280;15183;51.350;11.102;2022-10-14T02:12:38;100070.69;;;17.05;54.87
27805;BME280;15183;51.350;11.102;2022-10-14T02:18:32;100074.41;;;16.99;54.59
27805;BME280;15183;51.350;11.102;2022-10-14T02:23:55;100057.47;;;16.83;55.72
27805;BME280;15183;51.350;11.102;2022-10-14T02:26:24;100057.69;;;16.82;55.38
27805;BME280;15183;51.350;11.102;2022-10-14T02:28:52;100057.44;;;16.78;55.28
27805;BME280;15183;51.350;11.102;2022-10-14T02:31:21;100053.41;;;16.81;55.01
27805;BME280;15183;51.350;11.102;2022-10-14T02:33:56;100044.59;;;16.75;55.43
27805;BME280;15183;51.350;11.102;2022-10-14T02:36:24;100059.81;;;16.74;55.17
27805;BME280;15183;51.350;11.102;2022-10-14T02:38:55;100046.94;;;16.66;55.72
27805;BME280;15183;51.350;11.102;2022-10-14T02:41:27;100059.03;;;16.74;55.27
27805;BME280;15183;51.350;11.102;2022-10-14T02:43:56;100032.19;;;16.58;55.18
27805;BME280;15183;51.350;11.102;2022-10-14T02:46:22;100057.16;;;16.74;55.54
27805;BME280;15183;51.350;11.102;2022-10-14T02:48:49;100047.50;;;16.73;55.46
27805;BME280;15183;51.350;11.102;2022-10-14T02:51:15;100049.41;;;16.78;55.49
27805;BME280;15183;51.350;11.102;2022-10-14T02:53:42;100040.31;;;16.74;55.17
27805;BME280;15183;51.350;11.102;2022-10-14T02:56:12;100033.56;;;16.66;55.29
27805;BME280;15183;51.350;11.102;2022-10-14T02:58:39;100057.16;;;16.74;55.20
27805;BME280;15183;51.350;11.102;2022-10-14T03:01:05;100049.09;;;16.69;55.34
27805;BME280;15183;51.350;11.102;2022-10-14T03:03:32;100042.91;;;16.58;55.70
27805;BME280;15183;51.350;11.102;2022-10-14T03:05:58;100041.81;;;16.54;55.87
27805;BME280;15183;51.350;11.102;2022-10-14T03:08:25;100038.34;;;16.54;55.54
27805;BME280;15183;51.350;11.102;2022-10-14T03:10:51;100050.66;;;16.60;55.49
27805;BME280;15183;51.350;11.102;2022-10-14T03:13:18;100044.50;;;16.59;55.64
27805;BME280;15183;51.350;11.102;2022-10-14T03:15:48;100031.38;;;16.53;55.42
27805;BME280;15183;51.350;11.102;2022-10-14T03:18:15;100042.91;;;16.58;55.41
27805;BME280;15183;51.350;11.102;2022-10-14T03:20:43;100026.28;;;16.51;55.78
27805;BME280;15183;51.350;11.102;2022-10-14T03:23:11;100032.47;;;16.57;55.89
27805;BME280;15183;51.350;11.102;2022-10-14T03:25:38;100009.09;;;16.31;55.55
27805;BME280;15183;51.350;11.102;2022-10-14T03:28:05;100028.94;;;16.46;55.27
27805;BME280;15183;51.350;11.102;2022-10-14T03:30:31;100040.75;;;16.55;55.38
27805;BME280;15183;51.350;11.102;2022-10-14T03:32:57;100043.69;;;16.54;55.80
27805;BME280;15183;51.350;11.102;2022-10-14T03:35:24;100041.03;;;16.59;55.62
27805;BME280;15183;51.350;11.102;2022-10-14T03:37:51;100020.91;;;16.46;55.51
27805;BME280;15183;51.350;11.102;2022-10-14T03:40:18;100039.13;;;16.54;56.18
27805;BME280;15183;51.350;11.102;2022-10-14T03:42:45;100022.00;;;16.50;55.79
27805;BME280;15183;51.350;11.102;2022-10-14T03:45:12;100022.31;;;16.59;56.12
27805;BME280;15183;51.350;11.102;2022-10-14T03:47:38;100015.56;;;16.46;56.28
27805;BME280;15183;51.350;11.102;2022-10-14T03:50:05;99993.03;;;16.31;56.04
27805;BME280;15183;51.350;11.102;2022-10-14T03:52:32;100013.44;;;16.48;55.83
27805;BME280;15183;51.350;11.102;2022-10-14T03:54:59;99986.56;;;16.27;56.27
27805;BME280;15183;51.350;11.102;2022-10-14T03:57:25;100016.59;;;16.40;55.68
27805;BME280;15183;51.350;11.102;2022-10-14T03:59:52;100016.06;;;16.38;56.19
27805;BME280;15183;51.350;11.102;2022-10-14T04:02:18;100014.13;;;16.28;56.38
27805;BME280;15183;51.350;11.102;2022-10-14T04:04:45;100011.72;;;16.26;56.35
27805;BME280;15183;51.350;11.102;2022-10-14T04:07:12;100016.47;;;16.19;56.20
27805;BME280;15183;51.350;11.102;2022-10-14T04:09:38;100014.06;;;16.12;56.46
27805;BME280;15183;51.350;11.102;2022-10-14T04:12:05;100004.66;;;16.04;55.99
27805;BME280;15183;51.350;11.102;2022-10-14T04:14:31;99995.78;;;15.99;55.98
27805;BME280;15183;51.350;11.102;2022-10-14T04:16:58;99985.34;;;15.92;56.21
27805;BME280;15183;51.350;11.102;2022-10-14T04:19:25;100005.69;;;15.98;56.40
27805;BME280;15183;51.350;11.102;2022-10-14T04:21:51;99992.84;;;15.95;56.13
27805;BME280;15183;51.350;11.102;2022-10-14T04:24:18;100005.94;;;16.02;56.08
27805;BME280;15183;51.350;11.102;2022-10-14T04:26:44;99993.38;;;15.97;56.10
27805;BME280;15183;51.350;11.102;2022-10-14T04:29:11;100000.91;;;16.05;55.80
27805;BME280;15183;51.350;11.102;2022-10-14T04:31:37;99999.84;;;16.06;56.08
27805;BME280;15183;51.350;11.102;2022-10-14T04:34:03;99977.88;;;15.94;56.30
27805;BME280;15183;51.350;11.102;2022-10-14T04:36:30;99990.94;;;15.96;55.99
27805;BME280;15183;51.350;11.102;2022-10-14T04:38:56;99991.25;;;15.99;56.11
27805;BME280;15183;51.350;11.102;2022-10-14T04:41:23;99990.97;;;16.01;56.18
27805;BME280;15183;51.350;11.102;2022-10-14T04:43:49;99989.13;;;16.01;56.50
27805;BME280;15183;51.350;11.102;2022-10-14T04:46:16;99982.44;;;16.04;56.57
27805;BME280;15183;51.350;11.102;2022-10-14T04:48:42;99982.44;;;16.04;56.34
27805;BME280;15183;51.350;11.102;2022-10-14T04:51:09;99991.81;;;16.06;56.22
27805;BME280;15183;51.350;11.102;2022-10-14T04:53:35;99991.81;;;16.06;56.20
27805;BME280;15183;51.350;11.102;2022-10-14T04:56:02;99992.34;;;16.03;56.41
27805;BME280;15183;51.350;11.102;2022-10-14T04:58:28;99980.25;;;15.96;56.42
27805;BME280;15183;51.350;11.102;2022-10-14T05:00:55;99985.94;;;16.04;56.50
27805;BME280;15183;51.350;11.102;2022-10-14T05:03:22;99985.41;;;16.08;56.46
27805;BME280;15183;51.350;11.102;2022-10-14T05:05:51;99987.81;;;16.09;56.40
27805;BME280;15183;51.350;11.102;2022-10-14T05:08:18;99979.25;;;16.07;56.46
27805;BME280;15183;51.350;11.102;2022-10-14T05:10:47;99986.53;;;16.17;56.09
27805;BME280;15183;51.350;11.102;2022-10-14T05:13:14;99976.38;;;16.14;56.44
27805;BME280;15183;51.350;11.102;2022-10-14T05:15:41;99983.06;;;16.16;56.32
27805;BME280;15183;51.350;11.102;2022-10-14T05:18:10;99986.50;;;16.12;56.72
27805;BME280;15183;51.350;11.102;2022-10-14T05:20:37;99944.69;;;15.90;56.76
27805;BME280;15183;51.350;11.102;2022-10-14T05:23:05;99972.63;;;16.15;56.47
27805;BME280;15183;51.350;11.102;2022-10-14T05:25:31;99989.78;;;16.24;56.42
27805;BME280;15183;51.350;11.102;2022-10-14T05:27:57;99983.34;;;16.25;56.52
27805;BME280;15183;51.350;11.102;2022-10-14T05:30:24;99980.66;;;16.20;56.34
27805;BME280;15183;51.350;11.102;2022-10-14T05:32:50;99968.38;;;16.24;56.44
27805;BME280;15183;51.350;11.102;2022-10-14T05:35:17;99979.13;;;16.29;56.69
27805;BME280;15183;51.350;11.102;2022-10-14T05:37:43;99968.34;;;16.14;56.38
27805;BME280;15183;51.350;11.102;2022-10-14T05:40:10;99974.25;;;16.21;56.81
27805;BME280;15183;51.350;11.102;2022-10-14T05:42:36;99985.50;;;16.23;56.84
27805;BME280;15183;51.350;11.102;2022-10-14T05:45:04;99990.81;;;16.18;56.90
27805;BME280;15183;51.350;11.102;2022-10-14T05:47:31;99989.19;;;16.12;57.54
27805;BME280;15183;51.350;11.102;2022-10-14T05:49:57;99993.97;;;16.10;57.58
27805;BME280;15183;51.350;11.102;2022-10-14T05:52:24;99969.31;;;15.92;57.33
27805;BME280;15183;51.350;11.102;2022-10-14T05:54:50;99958.31;;;15.88;57.71
27805;BME280;15183;51.350;11.102;2022-10-14T05:57:17;99988.88;;;16.08;57.55
27805;BME280;15183;51.350;11.102;2022-10-14T05:59:43;99994.50;;;16.06;58.11
27805;BME280;15183;51.350;11.102;2022-10-14T06:02:10;99965.44;;;15.83;58.21
27805;BME280;15183;51.350;11.102;2022-10-14T06:04:37;99988.34;;;16.06;58.06
27805;BME280;15183;51.350;11.102;2022-10-14T06:07:06;99985.97;;;16.10;58.41
27805;BME280;15183;51.350;11.102;2022-10-14T06:09:34;99992.41;;;16.14;58.27
27805;BME280;15183;51.350;11.102;2022-10-14T06:12:01;99993.78;;;16.22;58.57
27805;BME280;15183;51.350;11.102;2022-10-14T06:14:28;99976.94;;;16.26;58.26
27805;BME280;15183;51.350;11.102;2022-10-14T06:16:54;99986.91;;;16.36;58.34
27805;BME280;15183;51.350;11.102;2022-10-14T06:19:21;99991.47;;;16.41;58.48
27805;BME280;15183;51.350;11.102;2022-10-14T06:21:47;99995.78;;;16.47;58.70
27805;BME280;15183;51.350;11.102;2022-10-14T06:24:14;99968.47;;;16.40;58.27
27805;BME280;15183;51.350;11.102;2022-10-14T06:26:40;99998.75;;;16.56;58.45
27805;BME280;15183;51.350;11.102;2022-10-14T06:29:07;99989.41;;;16.58;58.41
27805;BME280;15183;51.350;11.102;2022-10-14T06:31:33;99984.31;;;16.57;58.67
27805;BME280;15183;51.350;11.102;2022-10-14T06:34:04;99980.81;;;16.56;58.75
27805;BME280;15183;51.350;11.102;2022-10-14T06:36:31;99987.28;;;16.66;58.48
27805;BME280;15183;51.350;11.102;2022-10-14T06:38:57;99960.78;;;16.59;58.50
27805;BME280;15183;51.350;11.102;2022-10-14T06:41:24;99972.88;;;16.77;58.60
27805;BME280;15183;51.350;11.102;2022-10-14T06:43:50;99985.75;;;16.90;57.85
27805;BME280;15183;51.350;11.102;2022-10-14T06:46:17;99952.56;;;16.81;58.31
27805;BME280;15183;51.350;11.102;2022-10-14T06:48:43;99964.91;;;17.03;57.99
27805;BME280;15183;51.350;11.102;2022-10-14T06:51:10;99983.94;;;17.17;58.02
27805;BME280;15183;51.350;11.102;2022-10-14T06:53:36;99981.56;;;17.26;57.64
27805;BME280;15183;51.350;11.102;2022-10-14T06:56:05;99976.19;;;17.36;57.33
27805;BME280;15183;51.350;11.102;2022-10-14T06:58:32;99980.50;;;17.47;57.71
27805;BME280;15183;51.350;11.102;2022-10-14T07:01:04;99970.56;;;17.53;57.41
27805;BME280;15183;51.350;11.102;2022-10-14T07:03:35;99977.81;;;17.68;57.51
27805;BME280;15183;51.350;11.102;2022-10-14T07:06:03;99975.09;;;17.78;57.20
27805;BME280;15183;51.350;11.102;2022-10-14T07:08:30;99969.47;;;17.85;57.26
27805;BME280;15183;51.350;11.102;2022-10-14T07:10:56;99972.44;;;17.89;57.69
27805;BME280;15183;51.350;11.102;2022-10-14T07:13:23;99968.16;;;17.88;57.76
27805;BME280;15183;51.350;11.102;2022-10-14T07:15:50;99977.50;;;17.96;57.77
27805;BME280;15183;51.350;11.102;2022-10-14T07:18:18;99982.31;;;17.99;57.22
27805;BME280;15183;51.350;11.102;2022-10-14T07:20:44;99986.34;;;18.06;57.18
27805;BME280;15183;51.350;11.102;2022-10-14T07:23:12;99977.50;;;18.11;56.86
27805;BME280;15183;51.350;11.102;2022-10-14T07:25:38;99965.94;;;18.16;56.74
27805;BME280;15183;51.350;11.102;2022-10-14T07:28:05;99984.94;;;18.30;56.92
27805;BME280;15183;51.350;11.102;2022-10-14T07:30:32;99970.47;;;18.26;56.95
27805;BME280;15183;51.350;11.102;2022-10-14T07:32:59;99959.75;;;18.26;57.09
27805;BME280;15183;51.350;11.102;2022-10-14T07:35:25;99971.53;;;18.30;57.09
27805;BME280;15183;51.350;11.102;2022-10-14T07:37:52;99980.91;;;18.37;57.21
27805;BME280;15183;51.350;11.102;2022-10-14T07:40:19;99973.34;;;18.45;56.66
27805;BME280;15183;51.350;11.102;2022-10-14T07:42:46;99985.88;;;18.65;56.87
27805;BME280;15183;51.350;11.102;2022-10-14T07:45:13;99987.94;;;18.84;56.27
27805;BME280;15183;51.350;11.102;2022-10-14T07:47:42;99987.38;;;18.87;56.42
27805;BME280;15183;51.350;11.102;2022-10-14T07:50:10;99978.53;;;18.81;56.03
27805;BME280;15183;51.350;11.102;2022-10-14T07:52:37;99999.91;;;19.07;56.48
27805;BME280;15183;51.350;11.102;2022-10-14T07:55:06;99998.22;;;19.16;56.24
27805;BME280;15183;51.350;11.102;2022-10-14T07:57:36;99981.03;;;19.17;56.53
27805;BME280;15183;51.350;11.102;2022-10-14T08:00:07;99998.44;;;19.25;56.44
27805;BME280;15183;51.350;11.102;2022-10-14T08:02:34;99988.53;;;19.20;56.66
27805;BME280;15183;51.350;11.102;2022-10-14T08:05:00;99987.72;;;19.25;56.64
27805;BME280;15183;51.350;11.102;2022-10-14T08:07:27;100000.28;;;19.35;55.91
27805;BME280;15183;51.350;11.102;2022-10-14T08:09:54;99993.25;;;19.39;55.88
27805;BME280;15183;51.350;11.102;2022-10-14T08:12:21;99967.00;;;19.26;55.99
27805;BME280;15183;51.350;11.102;2022-10-14T08:14:47;99977.91;;;19.40;56.14
27805;BME280;15183;51.350;11.102;2022-10-14T08:17:14;99975.69;;;19.47;55.87
27805;BME280;15183;51.350;11.102;2022-10-14T08:19:40;99990.31;;;19.65;55.91
27805;BME280;15183;51.350;11.102;2022-10-14T08:22:07;99993.00;;;19.70;56.30
27805;BME280;15183;51.350;11.102;2022-10-14T08:24:33;99986.13;;;19.83;55.55
27805;BME280;15183;51.350;11.102;2022-10-14T08:27:00;99987.44;;;19.91;55.58
27805;BME280;15183;51.350;11.102;2022-10-14T08:29:26;99986.22;;;20.02;55.66
27805;BME280;15183;51.350;11.102;2022-10-14T08:31:53;99989.28;;;20.20;55.21
27805;BME280;15183;51.350;11.102;2022-10-14T08:34:20;99989.97;;;20.31;55.07
27805;BME280;15183;51.350;11.102;2022-10-14T08:36:49;99994.41;;;20.41;54.83
27805;BME280;15183;51.350;11.102;2022-10-14T08:39:20;99994.59;;;20.49;55.09
27805;BME280;15183;51.350;11.102;2022-10-14T08:41:55;99994.69;;;20.63;54.28
27805;BME280;15183;51.350;11.102;2022-10-14T08:47:14;99971.63;;;20.76;53.93
27805;BME280;15183;51.350;11.102;2022-10-14T08:50:04;99960.63;;;20.73;54.32
27805;BME280;15183;51.350;11.102;2022-10-14T08:52:40;99987.00;;;20.95;53.95
27805;BME280;15183;51.350;11.102;2022-10-14T08:55:36;99985.06;;;21.01;53.82
27805;BME280;15183;51.350;11.102;2022-10-14T09:01:30;99977.09;;;21.29;52.97
27805;BME280;15183;51.350;11.102;2022-10-14T09:04:03;99977.72;;;21.39;52.64
27805;BME280;15183;51.350;11.102;2022-10-14T09:06:34;99987.25;;;21.51;52.03
27805;BME280;15183;51.350;11.102;2022-10-14T09:09:22;99976.47;;;21.51;52.34
27805;BME280;15183;51.350;11.102;2022-10-14T09:11:57;99972.63;;;21.71;52.45
27805;BME280;15183;51.350;11.102;2022-10-14T09:14:31;99978.75;;;21.91;51.71
27805;BME280;15183;51.350;11.102;2022-10-14T09:17:19;99970.97;;;22.03;51.65
27805;BME280;15183;51.350;11.102;2022-10-14T09:19:55;99972.25;;;22.20;51.26
27805;BME280;15183;51.350;11.102;2022-10-14T09:22:24;99964.88;;;22.25;51.76
27805;BME280;15183;51.350;11.102;2022-10-14T09:24:52;99965.75;;;22.35;50.99
27805;BME280;15183;51.350;11.102;2022-10-14T09:27:21;99957.75;;;22.44;51.39
27805;BME280;15183;51.350;11.102;2022-10-14T09:30:00;99967.75;;;22.57;51.11
27805;BME280;15183;51.350;11.102;2022-10-14T09:32:44;99956.47;;;22.55;50.44
27805;BME280;15183;51.350;11.102;2022-10-14T09:35:18;99949.97;;;22.56;50.60
27805;BME280;15183;51.350;11.102;2022-10-14T09:37:47;99956.22;;;22.65;50.25
27805;BME280;15183;51.350;11.102;2022-10-14T09:40:17;99961.50;;;22.70;50.02
27805;BME280;15183;51.350;11.102;2022-10-14T09:51:31;99958.75;;;22.62;50.18
27805;BME280;15183;51.350;11.102;2022-10-14T09:54:03;99962.63;;;22.69;49.94
27805;BME280;15183;51.350;11.102;2022-10-14T09:56:38;99947.72;;;22.72;49.36
27805;BME280;15183;51.350;11.102;2022-10-14T09:59:20;99955.78;;;22.86;49.52
27805;BME280;15183;51.350;11.102;2022-10-14T10:02:01;99933.34;;;22.86;48.91
27805;BME280;15183;51.350;11.102;2022-10-14T10:07:00;99948.00;;;23.07;48.65
27805;BME280;15183;51.350;11.102;2022-10-14T10:09:27;99929.63;;;22.95;48.92
27805;BME280;15183;51.350;11.102;2022-10-14T10:11:53;99941.00;;;23.06;49.06
27805;BME280;15183;51.350;11.102;2022-10-14T10:14:32;99951.47;;;23.08;49.15
27805;BME280;15183;51.350;11.102;2022-10-14T10:19:44;99952.50;;;23.35;48.50
27805;BME280;15183;51.350;11.102;2022-10-14T10:22:25;99942.03;;;23.42;48.08
27805;BME280;15183;51.350;11.102;2022-10-14T10:25:17;99923.09;;;23.42;48.30
27805;BME280;15183;51.350;11.102;2022-10-14T10:27:46;99936.50;;;23.47;47.93
27805;BME280;15183;51.350;11.102;2022-10-14T10:30:31;99941.59;;;23.49;47.63
27805;BME280;15183;51.350;11.102;2022-10-14T10:33:25;99931.69;;;23.44;47.77
27805;BME280;15183;51.350;11.102;2022-10-14T10:36:18;99931.53;;;23.40;48.17
27805;BME280;15183;51.350;11.102;2022-10-14T10:39:01;99927.66;;;23.33;48.11
27805;BME280;15183;51.350;11.102;2022-10-14T10:41:47;99927.09;;;23.22;47.86
27805;BME280;15183;51.350;11.102;2022-10-14T10:48:09;99912.03;;;23.07;48.11
27805;BME280;15183;51.350;11.102;2022-10-14T10:50:53;99907.75;;;23.06;47.69
27805;BME280;15183;51.350;11.102;2022-10-14T11:05:48;99892.50;;;23.10;47.88
27805;BME280;15183;51.350;11.102;2022-10-14T11:08:48;99898.91;;;23.14;47.67
27805;BME280;15183;51.350;11.102;2022-10-14T11:15:43;99889.91;;;22.96;48.23
27805;BME280;15183;51.350;11.102;2022-10-14T11:26:58;99871.66;;;22.79;48.28
27805;BME280;15183;51.350;11.102;2022-10-14T11:30:03;99857.28;;;22.69;47.97
27805;BME280;15183;51.350;11.102;2022-10-14T11:36:15;99851.59;;;22.94;48.36
27805;BME280;15183;51.350;11.102;2022-10-14T11:39:19;99850.75;;;23.16;48.03
27805;BME280;15183;51.350;11.102;2022-10-14T11:44:36;99840.13;;;23.51;47.56
27805;BME280;15183;51.350;11.102;2022-10-14T11:47:19;99832.69;;;23.66;46.98
27805;BME280;15183;51.350;11.102;2022-10-14T11:50:22;99837.47;;;23.69;46.75
27805;BME280;15183;51.350;11.102;2022-10-14T11:53:02;99850.88;;;23.83;46.76
27805;BME280;15183;51.350;11.102;2022-10-14T11:55:39;99843.53;;;23.83;47.06
27805;BME280;15183;51.350;11.102;2022-10-14T11:58:21;99808.81;;;23.68;46.88
27805;BME280;15183;51.350;11.102;2022-10-14T12:00:56;99823.97;;;23.78;46.59
27805;BME280;15183;51.350;11.102;2022-10-14T12:06:40;99836.88;;;23.90;46.70
27805;BME280;15183;51.350;11.102;2022-10-14T12:09:30;99821.28;;;23.87;46.62
27805;BME280;15183;51.350;11.102;2022-10-14T12:12:03;99801.84;;;23.84;46.63
27805;BME280;15183;51.350;11.102;2022-10-14T12:14:57;99814.16;;;24.08;46.59
27805;BME280;15183;51.350;11.102;2022-10-14T12:17:42;99800.78;;;24.21;46.29
27805;BME280;15183;51.350;11.102;2022-10-14T12:23:14;99799.19;;;24.37;45.92
27805;BME280;15183;51.350;11.102;2022-10-14T12:25:56;99798.84;;;24.56;46.08
27805;BME280;15183;51.350;11.102;2022-10-14T12:28:26;99793.09;;;24.67;45.92
27805;BME280;15183;51.350;11.102;2022-10-14T12:36:43;99788.41;;;25.03;45.71
27805;BME280;15183;51.350;11.102;2022-10-14T12:41:58;99778.34;;;25.12;44.60
27805;BME280;15183;51.350;11.102;2022-10-14T12:44:48;99762.25;;;25.07;44.89
27805;BME280;15183;51.350;11.102;2022-10-14T12:47:33;99766.75;;;25.03;45.18
27805;BME280;15183;51.350;11.102;2022-10-14T12:50:05;99767.84;;;25.02;44.86
27805;BME280;15183;51.350;11.102;2022-10-14T12:52:55;99752.13;;;24.77;45.71
27805;BME280;15183;51.350;11.102;2022-10-14T12:55:24;99761.38;;;24.85;45.27
27805;BME280;15183;51.350;11.102;2022-10-14T12:58:00;99758.34;;;24.78;44.72
27805;BME280;15183;51.350;11.102;2022-10-14T13:00:33;99754.22;;;24.63;45.03
27805;BME280;15183;51.350;11.102;2022-10-14T13:03:03;99727.38;;;24.31;45.25
27805;BME280;15183;51.350;11.102;2022-10-14T13:05:39;99755.22;;;24.40;45.22
27805;BME280;15183;51.350;11.102;2022-10-14T13:11:12;99762.09;;;24.11;45.47
27805;BME280;15183;51.350;11.102;2022-10-14T13:18:55;99757.78;;;24.02;45.19
27805;BME280;15183;51.350;11.102;2022-10-14T13:24:38;99746.63;;;23.94;45.10
27805;BME280;15183;51.350;11.102;2022-10-14T13:27:39;99750.78;;;23.92;45.63
27805;BME280;15183;51.350;11.102;2022-10-14T13:33:30;99739.63;;;23.76;45.61
27805;BME280;15183;51.350;11.102;2022-10-14T13:36:12;99736.72;;;23.72;45.42
27805;BME280;15183;51.350;11.102;2022-10-14T13:38:50;99732.91;;;23.64;45.26
27805;BME280;15183;51.350;11.102;2022-10-14T13:41:19;99734.97;;;23.59;45.24
27805;BME280;15183;51.350;11.102;2022-10-14T13:43:55;99724.44;;;23.48;45.55
27805;BME280;15183;51.350;11.102;2022-10-14T13:48:58;99715.72;;;23.51;45.73
27805;BME280;15183;51.350;11.102;2022-10-14T13:51:35;99727.34;;;23.61;45.13
27805;BME280;15183;51.350;11.102;2022-10-14T13:54:23;99714.75;;;23.56;45.09
27805;BME280;15183;51.350;11.102;2022-10-14T13:57:11;99728.63;;;23.72;45.62
27805;BME280;15183;51.350;11.102;2022-10-14T13:59:42;99728.28;;;23.82;45.57
27805;BME280;15183;51.350;11.102;2022-10-14T14:02:21;99718.59;;;23.81;45.10
27805;BME280;15183;51.350;11.102;2022-10-14T14:04:55;99717.81;;;23.90;45.01
27805;BME280;15183;51.350;11.102;2022-10-14T14:07:34;99718.13;;;23.97;44.78
27805;BME280;15183;51.350;11.102;2022-10-14T14:10:08;99712.25;;;23.95;45.14
27805;BME280;15183;51.350;11.102;2022-10-14T14:12:36;99682.94;;;23.79;45.20
27805;BME280;15183;51.350;11.102;2022-10-14T14:15:11;99697.59;;;23.69;45.10
27805;BME280;15183;51.350;11.102;2022-10-14T14:17:42;99701.56;;;23.63;45.27
27805;BME280;15183;51.350;11.102;2022-10-14T14:20:10;99714.28;;;23.63;45.48
27805;BME280;15183;51.350;11.102;2022-10-14T14:22:42;99678.00;;;23.37;45.47
27805;BME280;15183;51.350;11.102;2022-10-14T14:25:24;99694.06;;;23.42;45.07
27805;BME280;15183;51.350;11.102;2022-10-14T14:27:55;99705.34;;;23.45;45.23
27805;BME280;15183;51.350;11.102;2022-10-14T14:30:30;99688.97;;;23.32;45.30
27805;BME280;15183;51.350;11.102;2022-10-14T14:33:12;99690.22;;;23.35;45.35
27805;BME280;15183;51.350;11.102;2022-10-14T14:35:50;99688.00;;;23.37;44.92
27805;BME280;15183;51.350;11.102;2022-10-14T14:38:36;99695.47;;;23.31;45.62
27805;BME280;15183;51.350;11.102;2022-10-14T14:41:17;99692.78;;;23.31;45.90
27805;BME280;15183;51.350;11.102;2022-10-14T14:43:45;99685.59;;;23.26;45.32
27805;BME280;15183;51.350;11.102;2022-10-14T14:46:33;99684.50;;;23.27;45.16
27805;BME280;15183;51.350;11.102;2022-10-14T14:48:59;99678.09;;;23.23;45.87
27805;BME280;15183;51.350;11.102;2022-10-14T14:51:32;99682.56;;;23.28;45.95
27805;BME280;15183;51.350;11.102;2022-10-14T14:54:00;99663.00;;;23.22;45.38
27805;BME280;15183;51.350;11.102;2022-10-14T14:56:41;99671.28;;;23.26;45.81